Terminal Aerodrome Forecast
Issued by NWS

Home | Current Version | Previous Version | Text Only | Print | Product List | Glossary On
Versions: 1 2 3 4 5 6 7 8 9 10 11 12 13 14 15 16 17 18 19
000
FTUS42 KTBW 180300 AAC
TAFPIE
TAF AMD
KPIE 180302Z 1803/1824 08014KT P6SM VCSH SCT025 BKN100
      TEMPO 1803/1805 5SM SHRA BKN025
     FM180800 09012KT P6SM SCT015 BKN025
     FM181400 12013KT P6SM VCSH SCT015 BKN025
     FM181700 16014G24KT P6SM VCSH SCT015 BKN030
     FM182000 19014G24KT P6SM VCSH SCT015 BKN030=

USA.gov is the U.S. government's official web portal to all federal, state and local government web resources and services.